Time;durP1;ratioP1;P1;durP2;ratioP2;P2;SDS_P1;SDS_P2;PMS_P1;PMS_P2;Temp;Humidity;BMP_temperature;BMP_pressure;BME280_temperature;BME280_humidity;BME280_pressure;Samples;Min_cycle;Max_cycle;Signal;HPM_P1;HPM_P2
2023/11/30 00:01:02;;;;;;;3.40;3.00;;;0.80;99.90;;;;;;6197822;23;20405;-61
2023/11/30 00:03:29;;;;;;;6.50;3.30;;;0.80;99.90;;;;;;6198248;23;20412;-59
2023/11/30 00:05:56;;;;;;;3.60;2.60;;;0.80;99.90;;;;;;6200658;23;20432;-61
2023/11/30 00:08:22;;;;;;;5.17;2.70;;;0.70;99.90;;;;;;6201717;23;20411;-60
2023/11/30 00:10:49;;;;;;;7.53;4.30;;;0.70;99.90;;;;;;6201982;23;20463;-63
2023/11/30 00:13:16;;;;;;;4.13;3.73;;;0.70;99.90;;;;;;6202467;23;20436;-62
2023/11/30 00:15:44;;;;;;;4.20;3.73;;;0.60;99.90;;;;;;6201914;23;20428;-62
2023/11/30 00:18:11;;;;;;;4.37;2.80;;;0.60;99.90;;;;;;6202172;23;20401;-62
2023/11/30 00:20:38;;;;;;;3.93;3.63;;;0.60;99.90;;;;;;6201529;23;20461;-61
2023/11/30 00:23:05;;;;;;;3.03;2.43;;;0.60;99.90;;;;;;6202630;23;20423;-60
2023/11/30 00:25:33;;;;;;;7.83;4.10;;;0.50;99.90;;;;;;6201158;23;20405;-60
2023/11/30 00:27:59;;;;;;;6.03;2.70;;;0.50;99.90;;;;;;6198002;23;20469;-60
2023/11/30 00:30:26;;;;;;;5.60;3.13;;;0.60;99.90;;;;;;6202273;23;20899;-59
2023/11/30 00:32:55;;;;;;;2.40;1.97;;;0.60;99.90;;;;;;6202653;23;20451;-61
2023/11/30 00:35:21;;;;;;;4.03;3.20;;;0.50;99.90;;;;;;6204258;23;20424;-61
2023/11/30 00:37:48;;;;;;;3.93;2.87;;;0.40;99.90;;;;;;6203226;23;20440;-61
2023/11/30 00:40:15;;;;;;;8.70;3.23;;;0.40;99.90;;;;;;6203529;23;20404;-61
2023/11/30 00:42:42;;;;;;;5.10;2.70;;;0.30;99.90;;;;;;6201241;23;20412;-59
2023/11/30 00:45:10;;;;;;;4.07;2.40;;;0.30;99.90;;;;;;6203012;23;20420;-62
2023/11/30 00:47:37;;;;;;;7.03;3.83;;;0.30;99.90;;;;;;6202997;23;20416;-62
2023/11/30 00:50:07;;;;;;;5.00;3.50;;;0.20;99.90;;;;;;6201785;23;20409;-59
2023/11/30 00:52:33;;;;;;;5.63;2.70;;;0.20;99.90;;;;;;6203128;23;20440;-62
2023/11/30 00:55:00;;;;;;;4.37;3.03;;;0.10;99.90;;;;;;6202729;23;20425;-60
2023/11/30 00:57:27;;;;;;;4.80;3.30;;;0.10;99.90;;;;;;6202754;23;20401;-63
2023/11/30 00:59:54;;;;;;;5.13;3.73;;;0.10;99.90;;;;;;6202805;23;20437;-62
2023/11/30 01:02:21;;;;;;;6.30;3.97;;;0.00;99.90;;;;;;6212162;23;20401;-61
2023/11/30 01:04:48;;;;;;;4.30;2.40;;;0.00;99.90;;;;;;6212680;23;20385;-62
2023/11/30 01:07:16;;;;;;;3.93;3.17;;;0.00;99.90;;;;;;6212910;23;20615;-60
2023/11/30 01:09:43;;;;;;;6.10;3.17;;;0.00;99.90;;;;;;6212009;23;20401;-62
2023/11/30 01:12:11;;;;;;;5.27;4.50;;;0.00;99.90;;;;;;6212619;23;20416;-58
2023/11/30 01:14:38;;;;;;;8.57;4.90;;;-0.10;99.90;;;;;;6213196;23;20441;-60
2023/11/30 01:17:05;;;;;;;5.50;2.73;;;-0.10;99.90;;;;;;6212674;23;20503;-60
2023/11/30 01:19:31;;;;;;;5.90;3.43;;;-0.10;99.90;;;;;;6213595;23;20405;-59
2023/11/30 01:21:58;;;;;;;5.10;3.30;;;-0.10;99.90;;;;;;6213641;23;20405;-60
2023/11/30 01:24:26;;;;;;;5.17;3.70;;;-0.10;99.90;;;;;;6212834;23;20383;-60
2023/11/30 01:26:53;;;;;;;4.30;3.90;;;-0.10;99.90;;;;;;6213217;23;20405;-60
2023/11/30 01:29:20;;;;;;;6.90;3.53;;;-0.10;99.90;;;;;;6213428;23;20428;-60
2023/11/30 01:31:47;;;;;;;6.77;4.40;;;-0.10;99.90;;;;;;6212673;23;20401;-60
2023/11/30 01:34:14;;;;;;;5.20;3.43;;;-0.20;99.90;;;;;;6213281;23;20436;-58
2023/11/30 01:36:41;;;;;;;5.47;3.57;;;-0.20;99.90;;;;;;6213498;23;20416;-54
2023/11/30 01:39:08;;;;;;;6.83;3.23;;;-0.20;99.90;;;;;;6213404;23;20483;-56
2023/11/30 01:41:37;;;;;;;5.70;2.70;;;-0.20;99.90;;;;;;6213626;23;20425;-58
2023/11/30 01:44:06;;;;;;;6.10;3.67;;;-0.30;99.90;;;;;;6212485;23;20408;-61
2023/11/30 01:46:33;;;;;;;7.93;3.33;;;-0.30;99.90;;;;;;6211707;23;20400;-61
2023/11/30 01:49:00;;;;;;;6.47;3.70;;;-0.20;99.90;;;;;;6211435;23;20408;-55
2023/11/30 01:51:27;;;;;;;5.00;3.50;;;-0.20;99.90;;;;;;6211794;23;20436;-60
2023/11/30 01:53:55;;;;;;;8.77;4.03;;;-0.20;99.90;;;;;;6213134;23;20531;-57
2023/11/30 01:56:23;;;;;;;6.17;4.17;;;-0.30;99.90;;;;;;6211177;23;20440;-60
2023/11/30 01:58:53;;;;;;;9.53;5.77;;;-0.20;99.90;;;;;;6211448;23;20393;-60
2023/11/30 02:01:20;;;;;;;8.57;5.20;;;-0.20;99.90;;;;;;6211333;23;20405;-60
2023/11/30 02:03:47;;;;;;;4.83;4.30;;;-0.20;99.90;;;;;;6212500;23;20449;-61
2023/11/30 02:06:16;;;;;;;7.30;4.10;;;-0.20;99.90;;;;;;6212129;23;20424;-59
2023/11/30 02:08:43;;;;;;;6.77;5.20;;;-0.20;99.90;;;;;;6212690;23;20536;-61
2023/11/30 02:11:10;;;;;;;6.83;3.40;;;-0.30;99.90;;;;;;6213071;23;20400;-61
2023/11/30 02:13:37;;;;;;;5.97;3.83;;;-0.20;99.90;;;;;;6212291;23;20429;-61
2023/11/30 02:16:06;;;;;;;4.73;3.77;;;-0.30;99.90;;;;;;6212217;23;20412;-58
2023/11/30 02:18:33;;;;;;;5.23;3.63;;;-0.20;99.90;;;;;;6212588;23;20433;-57
2023/11/30 02:21:00;;;;;;;8.00;4.00;;;-0.30;99.90;;;;;;6212075;23;20405;-58
2023/11/30 02:23:28;;;;;;;5.03;3.93;;;-0.20;99.90;;;;;;6212041;23;20405;-59
2023/11/30 02:25:55;;;;;;;4.97;3.20;;;-0.30;99.90;;;;;;6212389;23;20397;-59
2023/11/30 02:28:22;;;;;;;6.67;3.87;;;-0.40;99.90;;;;;;6211910;23;20843;-57
2023/11/30 02:30:49;;;;;;;5.17;3.40;;;-0.40;99.90;;;;;;6211510;23;20437;-61
2023/11/30 02:33:17;;;;;;;7.10;3.47;;;-0.40;99.90;;;;;;6211795;23;20425;-57
2023/11/30 02:35:43;;;;;;;4.77;3.37;;;-0.50;99.90;;;;;;6211728;23;20429;-57
2023/11/30 02:38:10;;;;;;;7.17;4.97;;;-0.60;99.90;;;;;;6211812;23;20409;-57
2023/11/30 02:40:39;;;;;;;6.77;3.70;;;-0.50;99.90;;;;;;6212360;23;20396;-57
2023/11/30 02:43:06;;;;;;;8.63;3.50;;;-0.50;99.90;;;;;;6212190;23;20401;-60
2023/11/30 02:45:36;;;;;;;9.90;3.00;;;-0.40;99.90;;;;;;6211905;23;20439;-57
2023/11/30 02:48:02;;;;;;;5.57;4.00;;;-0.40;99.90;;;;;;6212665;23;20401;-57
2023/11/30 02:50:29;;;;;;;11.57;4.93;;;-0.50;99.90;;;;;;6212681;23;20396;-61
2023/11/30 02:52:56;;;;;;;5.77;3.20;;;-0.50;99.90;;;;;;6212240;23;20432;-60
2023/11/30 02:55:23;;;;;;;10.10;5.20;;;-0.50;99.90;;;;;;6211652;23;20397;-61
2023/11/30 02:57:51;;;;;;;10.37;5.10;;;-0.50;99.90;;;;;;6211754;23;20425;-58
2023/11/30 03:00:19;;;;;;;12.80;5.17;;;-0.50;99.90;;;;;;6211454;23;20408;-57
2023/11/30 03:02:48;;;;;;;7.87;4.40;;;-0.50;99.90;;;;;;6211857;23;20416;-56
2023/11/30 03:05:14;;;;;;;9.90;5.00;;;-0.50;99.90;;;;;;6212264;23;20365;-59
2023/11/30 03:07:41;;;;;;;7.80;5.00;;;-0.50;99.90;;;;;;6212433;23;20405;-62
2023/11/30 03:10:09;;;;;;;6.33;3.77;;;-0.40;99.90;;;;;;6211984;23;20878;-61
2023/11/30 03:12:36;;;;;;;9.60;4.40;;;-0.30;99.90;;;;;;6211689;23;20412;-59
2023/11/30 03:15:05;;;;;;;10.00;5.00;;;-0.30;99.90;;;;;;6211085;23;20464;-60
2023/11/30 03:17:32;;;;;;;8.70;4.90;;;-0.30;99.90;;;;;;6212125;23;20412;-59
2023/11/30 03:19:58;;;;;;;6.83;5.13;;;-0.30;99.90;;;;;;6211711;23;20424;-60
2023/11/30 03:22:25;;;;;;;8.10;5.00;;;-0.30;99.90;;;;;;6212398;23;20419;-59
2023/11/30 03:24:52;;;;;;;11.90;5.07;;;-0.30;99.90;;;;;;6211383;23;20401;-61
2023/11/30 03:27:19;;;;;;;6.50;4.23;;;-0.20;99.90;;;;;;6211855;23;20424;-61
2023/11/30 03:29:46;;;;;;;5.70;3.60;;;-0.20;99.90;;;;;;6210983;23;20389;-56
2023/11/30 03:32:14;;;;;;;9.00;5.30;;;-0.20;99.90;;;;;;6210907;23;20436;-61
2023/11/30 03:34:41;;;;;;;8.30;3.97;;;-0.30;99.90;;;;;;6210974;23;20437;-58
2023/11/30 03:37:08;;;;;;;5.87;3.53;;;-0.30;99.90;;;;;;6210698;23;20436;-60
2023/11/30 03:39:38;;;;;;;6.83;4.43;;;-0.30;99.90;;;;;;6211460;23;20400;-60
2023/11/30 03:42:05;;;;;;;7.23;4.70;;;-0.30;99.90;;;;;;6211986;23;20385;-59
2023/11/30 03:44:32;;;;;;;12.23;4.50;;;-0.30;99.90;;;;;;6211750;23;20385;-57
2023/11/30 03:46:59;;;;;;;5.00;3.70;;;-0.30;99.90;;;;;;6210886;23;20393;-59
2023/11/30 03:49:27;;;;;;;7.27;4.93;;;-0.30;99.90;;;;;;6210649;23;20485;-59
2023/11/30 03:51:54;;;;;;;9.87;5.63;;;-0.30;99.90;;;;;;6211263;23;20404;-60
2023/11/30 03:54:21;;;;;;;9.70;4.83;;;-0.30;99.90;;;;;;6211032;23;20524;-60
2023/11/30 03:56:48;;;;;;;5.93;3.97;;;-0.30;99.90;;;;;;6211069;23;20401;-59
2023/11/30 03:59:15;;;;;;;10.80;5.00;;;-0.40;99.90;;;;;;6211249;23;20423;-59
2023/11/30 04:01:41;;;;;;;10.30;5.27;;;-0.30;99.90;;;;;;6211085;23;20370;-60
2023/11/30 04:04:08;;;;;;;8.57;4.53;;;-0.40;99.90;;;;;;6211330;23;20405;-59
2023/11/30 04:06:36;;;;;;;11.73;5.70;;;-0.40;99.90;;;;;;6213023;23;20419;-56
2023/11/30 04:09:04;;;;;;;9.77;5.30;;;-0.40;99.90;;;;;;6214001;23;20416;-59
2023/11/30 04:11:30;;;;;;;9.70;4.97;;;-0.40;99.90;;;;;;6213551;23;20484;-58
2023/11/30 04:14:05;;;;;;;10.07;4.40;;;-0.40;99.90;;;;;;6212932;23;20445;-59
2023/11/30 04:16:32;;;;;;;9.13;5.70;;;-0.40;99.90;;;;;;6212903;23;20471;-58
2023/11/30 04:18:59;;;;;;;11.13;5.40;;;-0.40;99.90;;;;;;6213064;23;20385;-58
2023/11/30 04:21:26;;;;;;;6.33;4.23;;;-0.50;99.90;;;;;;6212889;23;20415;-60
2023/11/30 04:23:54;;;;;;;11.60;5.57;;;-0.50;99.90;;;;;;6213033;23;20377;-61
2023/11/30 04:26:24;;;;;;;11.20;4.60;;;-0.40;99.90;;;;;;6212756;23;20404;-61
2023/11/30 04:28:51;;;;;;;10.67;5.60;;;-0.40;99.90;;;;;;6213250;23;20471;-61
2023/11/30 04:31:17;;;;;;;9.23;4.17;;;-0.40;99.90;;;;;;6213437;23;20389;-62
2023/11/30 04:33:44;;;;;;;10.93;5.03;;;-0.40;99.90;;;;;;6213313;23;20429;-59
2023/11/30 04:36:13;;;;;;;6.73;5.07;;;-0.40;99.90;;;;;;6212956;23;20415;-62
2023/11/30 04:38:40;;;;;;;8.57;4.60;;;-0.50;99.90;;;;;;6213390;23;20417;-61
2023/11/30 04:41:08;;;;;;;9.20;3.77;;;-0.50;99.90;;;;;;6213067;23;20412;-62
2023/11/30 04:43:37;;;;;;;8.40;5.13;;;-0.50;99.90;;;;;;6213534;23;20393;-60
2023/11/30 04:46:04;;;;;;;13.30;5.97;;;-0.60;99.90;;;;;;6212926;23;20416;-58
2023/11/30 04:48:31;;;;;;;11.30;5.73;;;-0.60;99.90;;;;;;6212054;23;20412;-61
2023/11/30 04:50:58;;;;;;;9.97;5.67;;;-0.60;99.90;;;;;;6213300;23;20405;-57
2023/11/30 04:53:25;;;;;;;9.43;5.77;;;-0.60;99.90;;;;;;6213532;23;20385;-60
2023/11/30 04:55:51;;;;;;;17.17;6.40;;;-0.70;99.90;;;;;;6213293;23;20429;-60
2023/11/30 04:58:20;;;;;;;14.50;5.23;;;-0.60;99.90;;;;;;6213426;23;20412;-60
2023/11/30 05:00:47;;;;;;;10.97;6.57;;;-0.70;99.90;;;;;;6212694;23;20432;-61
2023/11/30 05:03:14;;;;;;;12.90;5.60;;;-0.70;99.90;;;;;;6212906;23;20457;-59
2023/11/30 05:05:41;;;;;;;11.53;4.87;;;-0.80;99.90;;;;;;6212718;23;20417;-60
2023/11/30 05:08:08;;;;;;;11.87;5.80;;;-0.80;99.90;;;;;;6211795;23;20405;-61
2023/11/30 05:10:34;;;;;;;10.40;5.30;;;-0.80;99.90;;;;;;6212602;23;20492;-61
2023/11/30 05:13:01;;;;;;;14.07;5.90;;;-0.80;99.90;;;;;;6212436;23;20401;-62
2023/11/30 05:15:29;;;;;;;14.27;6.83;;;-0.80;99.90;;;;;;6212344;23;20189;-61
2023/11/30 05:17:56;;;;;;;9.90;5.53;;;-0.80;99.90;;;;;;6212625;23;20610;-60
2023/11/30 05:20:23;;;;;;;11.10;6.20;;;-0.80;99.90;;;;;;6212934;23;20440;-60
2023/11/30 05:22:50;;;;;;;13.13;6.27;;;-0.90;99.90;;;;;;6212705;23;20397;-60
2023/11/30 05:25:17;;;;;;;10.17;4.50;;;-0.90;99.90;;;;;;6213053;23;20458;-62
2023/11/30 05:27:43;;;;;;;9.07;5.73;;;-0.90;99.90;;;;;;6212867;23;20385;-60
2023/11/30 05:30:11;;;;;;;10.53;5.50;;;-0.90;99.90;;;;;;6213123;23;20432;-58
2023/11/30 05:32:39;;;;;;;10.50;5.60;;;-1.00;99.90;;;;;;6212868;23;20405;-57
2023/11/30 05:35:07;;;;;;;10.10;6.87;;;-0.90;99.90;;;;;;6212602;23;20441;-53
2023/11/30 05:37:34;;;;;;;15.37;5.63;;;-1.00;99.90;;;;;;6213103;23;20416;-60
2023/11/30 05:40:00;;;;;;;8.33;5.50;;;-1.00;99.90;;;;;;6212816;23;20401;-60
2023/11/30 05:42:28;;;;;;;15.03;7.20;;;-1.10;99.90;;;;;;6212436;23;20405;-60
2023/11/30 05:44:56;;;;;;;10.00;5.87;;;-1.10;99.90;;;;;;6212707;23;20401;-59
2023/11/30 05:47:24;;;;;;;10.93;6.73;;;-1.00;99.90;;;;;;6211999;23;20413;-59
2023/11/30 05:49:54;;;;;;;7.30;4.93;;;-1.00;99.90;;;;;;6212278;23;20432;-60
2023/11/30 05:52:21;;;;;;;8.63;4.33;;;-0.90;99.90;;;;;;6212951;23;20401;-59
2023/11/30 05:54:48;;;;;;;11.40;6.03;;;-0.90;99.90;;;;;;6213020;23;20451;-60
2023/11/30 05:57:14;;;;;;;11.70;5.87;;;-0.90;99.90;;;;;;6212206;23;20432;-61
2023/11/30 05:59:41;;;;;;;10.00;5.63;;;-0.90;99.90;;;;;;6212399;23;20401;-59
2023/11/30 06:02:10;;;;;;;9.63;6.27;;;-0.90;99.90;;;;;;6212852;23;20408;-57
2023/11/30 06:04:38;;;;;;;9.50;5.50;;;-0.90;99.90;;;;;;6213402;23;20410;-61
2023/11/30 06:07:07;;;;;;;13.00;5.23;;;-0.90;99.90;;;;;;6212674;23;20508;-59
2023/11/30 06:09:34;;;;;;;15.97;8.10;;;-0.90;99.90;;;;;;6212544;23;20385;-61
2023/11/30 06:12:01;;;;;;;11.43;5.13;;;-0.80;99.90;;;;;;6213013;23;20429;-62
2023/11/30 06:14:28;;;;;;;9.40;5.90;;;-0.80;99.90;;;;;;6212966;23;20440;-58
2023/11/30 06:16:54;;;;;;;9.63;4.60;;;-0.80;99.90;;;;;;6213621;23;20425;-58
2023/11/30 06:19:21;;;;;;;8.20;5.17;;;-0.80;99.90;;;;;;6213798;23;20400;-57
2023/11/30 06:21:50;;;;;;;7.90;5.70;;;-0.80;99.90;;;;;;6213789;23;20440;-59
2023/11/30 06:24:18;;;;;;;7.70;4.97;;;-0.70;99.90;;;;;;6213561;23;20405;-58
2023/11/30 06:26:48;;;;;;;10.40;5.00;;;-0.70;99.90;;;;;;6213191;23;20424;-60
2023/11/30 06:29:15;;;;;;;12.20;6.33;;;-0.70;99.90;;;;;;6212762;23;20401;-60
2023/11/30 06:31:42;;;;;;;12.93;4.50;;;-0.70;99.90;;;;;;6212879;23;20512;-61
2023/11/30 06:34:09;;;;;;;10.73;6.60;;;-0.70;99.90;;;;;;6212862;23;20388;-62
2023/11/30 06:36:36;;;;;;;10.43;6.17;;;-0.80;99.90;;;;;;6212481;23;20425;-62
2023/11/30 06:39:04;;;;;;;10.43;6.57;;;-0.80;99.90;;;;;;6212422;23;20383;-57
2023/11/30 06:41:33;;;;;;;12.90;6.17;;;-0.80;99.90;;;;;;6212149;23;20436;-61
2023/11/30 06:43:59;;;;;;;12.30;6.23;;;-0.80;99.90;;;;;;6212698;23;20404;-59
2023/11/30 06:46:26;;;;;;;11.17;4.87;;;-0.70;99.90;;;;;;6212211;23;20425;-60
2023/11/30 06:48:53;;;;;;;11.33;6.27;;;-0.80;99.90;;;;;;6212482;23;20386;-62
2023/11/30 06:51:20;;;;;;;15.70;6.43;;;-0.80;99.90;;;;;;6212384;23;20401;-61
2023/11/30 06:53:47;;;;;;;9.57;5.10;;;-0.80;99.90;;;;;;6212745;23;20389;-59
2023/11/30 06:56:13;;;;;;;9.73;6.90;;;-0.60;99.90;;;;;;6211929;23;20425;-60
2023/11/30 06:58:42;;;;;;;13.60;5.43;;;-0.70;99.90;;;;;;6212375;23;20401;-62
2023/11/30 07:01:09;;;;;;;6.97;4.47;;;-0.80;99.90;;;;;;6212501;23;20405;-60
2023/11/30 07:03:36;;;;;;;11.10;5.60;;;-0.80;99.90;;;;;;6212766;23;20428;-63
2023/11/30 07:06:03;;;;;;;11.53;5.70;;;-0.80;99.90;;;;;;6212931;23;20397;-59
2023/11/30 07:08:30;;;;;;;12.60;5.90;;;-0.80;99.90;;;;;;6212485;23;20401;-58
2023/11/30 07:10:57;;;;;;;13.60;7.63;;;-0.80;99.90;;;;;;6211727;23;20439;-61
2023/11/30 07:13:24;;;;;;;9.57;4.97;;;-0.70;99.90;;;;;;6211969;23;20440;-59
2023/11/30 07:15:52;;;;;;;12.80;5.87;;;-0.20;99.90;;;;;;6211211;23;20444;-61
2023/11/30 07:18:19;;;;;;;12.33;6.73;;;-0.70;99.90;;;;;;6211418;23;20460;-61
2023/11/30 07:20:47;;;;;;;8.67;5.20;;;-0.70;99.90;;;;;;6211452;23;20466;-57
2023/11/30 07:23:14;;;;;;;13.40;6.50;;;-0.70;99.90;;;;;;6211612;23;20439;-58
2023/11/30 07:25:40;;;;;;;9.30;5.60;;;-0.70;99.90;;;;;;6211958;23;20402;-60
2023/11/30 07:28:07;;;;;;;11.03;6.80;;;-0.70;99.90;;;;;;6211550;23;20439;-60
2023/11/30 07:30:34;;;;;;;9.27;6.00;;;-0.70;99.90;;;;;;6211110;23;20396;-57
2023/11/30 07:33:04;;;;;;;10.43;5.87;;;-0.70;99.90;;;;;;6210822;23;20451;-58
2023/11/30 07:35:33;;;;;;;11.00;6.07;;;-0.70;99.90;;;;;;6212040;23;20492;-60
2023/11/30 07:38:00;;;;;;;12.43;6.00;;;-0.70;99.90;;;;;;6211952;23;20429;-61
2023/11/30 07:40:28;;;;;;;13.40;7.20;;;-0.70;99.90;;;;;;6211729;23;20420;-61
2023/11/30 07:43:12;;;;;;;10.60;7.27;;;-0.70;99.90;;;;;;6211930;23;20429;-62
2023/11/30 07:45:39;;;;;;;12.07;6.97;;;-0.70;99.90;;;;;;6210773;23;20397;-61
2023/11/30 07:48:14;;;;;;;12.83;6.63;;;-0.40;99.90;;;;;;6210699;23;20461;-58
2023/11/30 07:50:41;;;;;;;10.23;8.07;;;-0.70;99.90;;;;;;6211698;23;20385;-60
2023/11/30 07:53:09;;;;;;;14.17;7.73;;;-0.60;99.90;;;;;;6212006;23;20421;-56
2023/11/30 07:55:36;;;;;;;12.20;5.37;;;-0.50;99.90;;;;;;6212134;23;20504;-59
2023/11/30 07:58:03;;;;;;;11.93;7.23;;;-0.40;99.90;;;;;;6211221;23;20396;-61
2023/11/30 08:00:32;;;;;;;14.07;8.53;;;-0.30;99.90;;;;;;6211573;23;20399;-56
2023/11/30 08:02:59;;;;;;;14.70;7.90;;;-0.40;99.90;;;;;;6211735;23;20412;-60
2023/11/30 08:05:28;;;;;;;13.23;7.10;;;-0.30;99.90;;;;;;6210687;23;20424;-56
2023/11/30 08:07:55;;;;;;;10.07;6.73;;;-0.30;99.90;;;;;;6211936;23;20392;-59
2023/11/30 08:10:23;;;;;;;14.27;7.67;;;-0.20;99.90;;;;;;6211842;23;20413;-62
2023/11/30 08:12:50;;;;;;;17.63;7.87;;;-0.10;99.90;;;;;;6211966;23;20389;-60
2023/11/30 08:15:17;;;;;;;14.40;7.80;;;-0.10;99.90;;;;;;6211461;23;20444;-57
2023/11/30 08:17:46;;;;;;;17.77;9.00;;;-0.10;99.90;;;;;;6212040;23;20411;-58
2023/11/30 08:20:13;;;;;;;16.67;10.03;;;-0.10;99.90;;;;;;6211964;23;20417;-60
2023/11/30 08:22:44;;;;;;;15.70;7.70;;;0.00;99.90;;;;;;6211353;23;20397;-60
2023/11/30 08:25:11;;;;;;;24.57;8.00;;;0.00;99.90;;;;;;6211256;23;20432;-60
2023/11/30 08:27:49;;;;;;;18.90;7.87;;;0.10;99.90;;;;;;6211261;23;20433;-58
2023/11/30 08:30:19;;;;;;;16.73;9.60;;;0.30;99.90;;;;;;6211523;23;20475;-59
2023/11/30 08:35:45;;;;;;;11.83;6.60;;;0.10;99.90;;;;;;6200863;23;20468;-60
2023/11/30 08:38:14;;;;;;;12.40;6.70;;;0.20;99.90;;;;;;6210500;23;20377;-61
2023/11/30 08:40:41;;;;;;;17.13;9.47;;;0.30;99.90;;;;;;6211094;23;20447;-59
2023/11/30 08:43:08;;;;;;;14.37;7.87;;;0.30;99.90;;;;;;6210446;23;20423;-59
2023/11/30 08:45:35;;;;;;;21.03;7.93;;;0.40;99.90;;;;;;6211066;23;20452;-60
2023/11/30 08:48:02;;;;;;;15.60;6.27;;;0.50;99.90;;;;;;6211155;23;20390;-59
2023/11/30 08:50:29;;;;;;;17.60;8.40;;;0.60;99.90;;;;;;6211463;23;20416;-60
2023/11/30 08:52:56;;;;;;;14.37;7.20;;;0.70;99.90;;;;;;6212376;23;20388;-56
2023/11/30 08:55:27;;;;;;;18.93;8.40;;;0.80;99.90;;;;;;6213953;23;20434;-59
2023/11/30 08:57:54;;;;;;;14.83;7.13;;;0.80;99.90;;;;;;6213468;23;20393;-59
2023/11/30 09:00:21;;;;;;;14.07;7.80;;;0.90;99.90;;;;;;6212976;23;20416;-57
2023/11/30 09:02:48;;;;;;;13.50;6.30;;;1.00;99.90;;;;;;6213038;23;20405;-58
2023/11/30 09:05:15;;;;;;;12.87;7.63;;;1.00;99.90;;;;;;6212064;23;20457;-61
2023/11/30 09:07:42;;;;;;;13.27;7.57;;;1.00;99.90;;;;;;6212576;23;20397;-60
2023/11/30 09:10:10;;;;;;;14.47;7.83;;;1.00;99.90;;;;;;6210594;23;20468;-58
2023/11/30 09:12:38;;;;;;;15.50;8.20;;;1.00;99.90;;;;;;6211817;23;20432;-61
2023/11/30 09:15:08;;;;;;;17.87;8.87;;;1.20;99.90;;;;;;6212699;23;20433;-60
2023/11/30 09:17:35;;;;;;;17.83;8.87;;;1.30;99.90;;;;;;6213101;23;20433;-61
2023/11/30 09:20:04;;;;;;;13.50;8.30;;;1.30;99.90;;;;;;6212771;23;20396;-61
2023/11/30 09:22:31;;;;;;;16.37;7.83;;;1.30;99.90;;;;;;6212808;23;20428;-60
2023/11/30 09:24:58;;;;;;;17.87;8.47;;;1.40;99.90;;;;;;6212378;23;20429;-58
2023/11/30 09:27:25;;;;;;;21.73;10.27;;;1.40;99.90;;;;;;6212809;23;20429;-61
2023/11/30 09:29:54;;;;;;;13.67;8.20;;;1.50;99.90;;;;;;6211496;23;20397;-60
2023/11/30 09:32:26;;;;;;;17.83;9.07;;;1.40;99.90;;;;;;6212653;23;20413;-61
2023/11/30 09:34:53;;;;;;;12.73;8.00;;;1.50;99.90;;;;;;6212725;23;20394;-61
2023/11/30 09:37:20;;;;;;;17.90;8.50;;;1.50;99.90;;;;;;6212594;23;20425;-60
2023/11/30 09:39:49;;;;;;;14.13;8.20;;;1.50;99.90;;;;;;6213432;23;20405;-57
2023/11/30 09:42:16;;;;;;;17.27;9.20;;;1.50;99.90;;;;;;6213281;23;20424;-59
2023/11/30 09:44:43;;;;;;;13.20;7.33;;;1.40;99.90;;;;;;6212800;23;20404;-61
2023/11/30 09:47:12;;;;;;;15.70;8.60;;;1.40;99.90;;;;;;6213624;23;20409;-58
2023/11/30 09:49:39;;;;;;;14.90;7.80;;;1.40;99.90;;;;;;6214248;23;20397;-59
2023/11/30 09:52:06;;;;;;;15.93;6.97;;;1.40;99.90;;;;;;6214004;23;20389;-50
2023/11/30 09:54:35;;;;;;;13.43;7.20;;;1.50;99.90;;;;;;6214096;23;20388;-58
2023/11/30 09:57:02;;;;;;;18.13;7.60;;;1.50;99.90;;;;;;6213936;23;20448;-55
2023/11/30 09:59:29;;;;;;;15.43;8.60;;;1.50;99.90;;;;;;6211680;23;20408;-58
2023/11/30 10:01:56;;;;;;;17.53;9.63;;;1.60;99.90;;;;;;6210529;23;20773;-61
2023/11/30 10:04:28;;;;;;;15.60;7.60;;;1.60;99.90;;;;;;6210192;23;20464;-60
2023/11/30 10:06:58;;;;;;;22.90;8.87;;;1.60;99.90;;;;;;6211072;23;20397;-61
2023/11/30 10:09:24;;;;;;;12.00;7.60;;;1.70;99.90;;;;;;6210253;23;20428;-60
2023/11/30 10:11:52;;;;;;;16.00;9.30;;;1.70;99.90;;;;;;6211315;23;20420;-59
2023/11/30 10:14:19;;;;;;;18.77;7.50;;;1.70;99.90;;;;;;6210732;23;20429;-62
2023/11/30 10:16:46;;;;;;;14.33;7.37;;;1.80;99.90;;;;;;6211035;23;20443;-58
2023/11/30 10:19:13;;;;;;;23.37;9.30;;;1.80;99.90;;;;;;6211754;23;20459;-62
2023/11/30 10:21:42;;;;;;;17.43;7.67;;;1.90;99.90;;;;;;6212702;23;20468;-64
2023/11/30 10:24:09;;;;;;;9.83;6.13;;;1.90;99.90;;;;;;6212757;23;20477;-59
2023/11/30 10:26:37;;;;;;;15.97;6.43;;;1.90;99.90;;;;;;6212761;23;20435;-61
2023/11/30 10:29:06;;;;;;;22.63;10.53;;;2.00;99.90;;;;;;6212604;23;20491;-61
2023/11/30 10:31:35;;;;;;;14.87;7.97;;;2.10;99.90;;;;;;6212526;23;20420;-61
2023/11/30 10:34:10;;;;;;;16.50;10.20;;;2.20;99.90;;;;;;6211945;23;20416;-58
2023/11/30 10:36:39;;;;;;;11.30;6.73;;;2.30;99.90;;;;;;6212154;23;20428;-62
2023/11/30 10:39:16;;;;;;;9.93;6.50;;;2.50;99.90;;;;;;6212058;23;20440;-60
2023/11/30 10:41:50;;;;;;;10.10;5.73;;;2.60;99.90;;;;;;6212892;23;20389;-60
2023/11/30 10:44:26;;;;;;;11.00;6.70;;;2.70;99.90;;;;;;6212538;23;20416;-62
2023/11/30 10:46:55;;;;;;;11.43;5.67;;;2.80;99.90;;;;;;6213141;23;20368;-61
2023/11/30 10:49:24;;;;;;;10.13;6.33;;;2.80;99.90;;;;;;6212627;23;20420;-63
2023/11/30 10:51:52;;;;;;;9.27;5.60;;;2.90;99.90;;;;;;6212750;23;20421;-61
2023/11/30 10:54:28;;;;;;;11.17;5.87;;;3.00;99.90;;;;;;6212857;23;20449;-61
2023/11/30 10:56:55;;;;;;;8.97;4.90;;;3.10;99.90;;;;;;6212873;23;20432;-60
2023/11/30 10:59:23;;;;;;;12.07;6.27;;;3.20;99.90;;;;;;6212653;23;20435;-61
2023/11/30 11:01:51;;;;;;;13.23;6.57;;;3.20;99.90;;;;;;6212725;23;20492;-60
2023/11/30 11:04:18;;;;;;;19.07;6.50;;;3.20;99.90;;;;;;6211716;23;20437;-61
2023/11/30 11:06:45;;;;;;;10.73;6.20;;;3.20;99.90;;;;;;6211993;23;20389;-62
2023/11/30 11:09:16;;;;;;;14.60;5.50;;;3.20;99.90;;;;;;6211815;23;20416;-64
2023/11/30 11:11:44;;;;;;;7.43;4.23;;;3.30;99.90;;;;;;6211530;23;20389;-62
2023/11/30 11:14:26;;;;;;;7.40;4.80;;;3.20;99.90;;;;;;6210822;23;20439;-61
2023/11/30 11:17:04;;;;;;;5.90;3.23;;;3.70;99.90;;;;;;6211218;23;20448;-65
2023/11/30 11:19:32;;;;;;;4.40;2.83;;;3.70;99.90;;;;;;6212611;23;20425;-62
2023/11/30 11:21:59;;;;;;;4.43;2.60;;;3.60;99.90;;;;;;6212502;23;20370;-59
2023/11/30 11:24:26;;;;;;;3.80;2.30;;;3.60;99.90;;;;;;6211904;23;20429;-60
2023/11/30 11:26:59;;;;;;;5.70;2.53;;;3.50;99.90;;;;;;6212082;23;20378;-61
2023/11/30 11:29:33;;;;;;;13.90;4.80;;;3.40;99.90;;;;;;6211544;23;20457;-63
2023/11/30 11:32:00;;;;;;;8.10;4.50;;;3.00;99.90;;;;;;6212411;23;20397;-61
2023/11/30 11:34:27;;;;;;;8.53;3.97;;;3.30;99.90;;;;;;6212288;23;20389;-58
2023/11/30 11:36:54;;;;;;;10.00;4.97;;;3.30;99.90;;;;;;6211995;23;20449;-58
2023/11/30 11:39:21;;;;;;;14.57;7.07;;;3.20;99.90;;;;;;6210902;23;20409;-61
2023/11/30 11:41:48;;;;;;;8.47;4.23;;;3.20;99.90;;;;;;6210964;23;20456;-61
2023/11/30 11:44:17;;;;;;;4.80;3.97;;;3.20;99.90;;;;;;6211702;23;20431;-68
2023/11/30 11:46:44;;;;;;;7.20;4.10;;;3.20;99.90;;;;;;6212386;23;20496;-63
2023/11/30 11:49:11;;;;;;;6.37;3.47;;;3.20;99.90;;;;;;6211306;23;20408;-60
2023/11/30 11:51:47;;;;;;;6.90;3.43;;;3.30;99.90;;;;;;6211290;23;20401;-57
2023/11/30 11:54:18;;;;;;;6.47;3.70;;;3.30;99.90;;;;;;6211099;23;20392;-61
2023/11/30 11:56:48;;;;;;;10.17;5.20;;;3.30;99.90;;;;;;6210522;23;20436;-60
2023/11/30 11:59:22;;;;;;;7.73;4.03;;;3.20;99.90;;;;;;6211264;23;20454;-62
2023/11/30 12:01:50;;;;;;;7.33;4.00;;;3.10;99.90;;;;;;6210870;23;20392;-63
2023/11/30 12:04:28;;;;;;;6.93;4.00;;;3.10;99.90;;;;;;6211788;23;20612;-65
2023/11/30 12:06:55;;;;;;;7.60;4.30;;;3.10;99.90;;;;;;6212085;23;20397;-65
2023/11/30 12:09:22;;;;;;;7.07;4.60;;;3.10;99.90;;;;;;6211688;23;20405;-63
2023/11/30 12:11:49;;;;;;;9.67;3.97;;;3.20;99.90;;;;;;6211735;23;20456;-63
2023/11/30 12:14:20;;;;;;;10.20;4.73;;;3.20;99.90;;;;;;6212053;23;20428;-61
2023/11/30 12:16:47;;;;;;;8.27;4.63;;;3.30;99.90;;;;;;6211499;23;20413;-66
2023/11/30 12:19:16;;;;;;;8.40;4.33;;;3.30;99.90;;;;;;6211668;23;20446;-69
2023/11/30 12:21:43;;;;;;;6.50;4.17;;;3.30;99.90;;;;;;6211016;23;20432;-62
2023/11/30 12:24:13;;;;;;;12.93;5.03;;;3.40;99.90;;;;;;6210444;23;20403;-59
2023/11/30 12:26:40;;;;;;;8.97;4.33;;;3.50;99.90;;;;;;6211120;23;20429;-64
2023/11/30 12:29:09;;;;;;;10.63;5.63;;;3.50;99.90;;;;;;6211007;23;20452;-56
2023/11/30 12:31:38;;;;;;;9.90;5.27;;;3.50;99.90;;;;;;6211890;23;20520;-62
2023/11/30 12:34:06;;;;;;;11.47;6.10;;;3.50;99.90;;;;;;6211010;23;20443;-60
2023/11/30 12:36:33;;;;;;;9.37;4.47;;;3.50;99.90;;;;;;6212147;23;20981;-60
2023/11/30 12:39:00;;;;;;;10.57;5.70;;;3.50;99.90;;;;;;6211248;23;20380;-61
2023/11/30 12:41:27;;;;;;;6.60;4.50;;;3.40;99.90;;;;;;6212396;23;20478;-64
2023/11/30 12:43:54;;;;;;;10.70;6.27;;;3.40;99.90;;;;;;6212339;23;20404;-62
2023/11/30 12:46:21;;;;;;;9.70;6.30;;;3.40;99.90;;;;;;6212900;23;20397;-62
2023/11/30 12:48:49;;;;;;;6.87;4.83;;;3.40;99.90;;;;;;6212193;23;20439;-67
2023/11/30 12:51:16;;;;;;;8.57;5.83;;;3.40;99.90;;;;;;6212690;23;20447;-66